createdAt,value
2022-12-02T00:00:18.994Z,33.58
2022-12-02T00:02:45.653Z,32.97
2022-12-02T00:05:15.174Z,32.75
2022-12-02T00:07:51.802Z,32.47
2022-12-02T00:10:24.036Z,30.30
2022-12-02T00:12:50.833Z,34.03
2022-12-02T00:15:37.954Z,32.90
2022-12-02T00:18:04.483Z,33.72
2022-12-02T00:20:30.875Z,31.48
2022-12-02T00:22:57.230Z,33.05
2022-12-02T00:25:23.599Z,32.53
2022-12-02T00:27:49.967Z,31.65
2022-12-02T00:30:17.164Z,32.90
2022-12-02T00:32:43.569Z,33.00
2022-12-02T00:35:10.038Z,30.65
2022-12-02T00:37:36.390Z,29.30
2022-12-02T00:40:02.964Z,31.15
2022-12-02T00:42:29.323Z,31.15
2022-12-02T00:45:14.348Z,28.92
2022-12-02T00:47:40.708Z,31.48
2022-12-02T00:50:07.483Z,31.35
2022-12-02T00:52:33.935Z,30.50
2022-12-02T00:55:00.285Z,33.63
2022-12-02T00:57:26.648Z,31.67
2022-12-02T00:59:53.032Z,32.50
2022-12-02T01:02:19.457Z,30.25
2022-12-02T01:04:45.933Z,32.67
2022-12-02T01:07:12.301Z,30.77
2022-12-02T01:09:38.643Z,31.83
2022-12-02T01:12:05.121Z,33.40
2022-12-02T01:14:31.561Z,33.15
2022-12-02T01:16:57.976Z,33.20
2022-12-02T01:19:24.514Z,35.83
2022-12-02T01:21:50.947Z,35.85
2022-12-02T01:24:17.332Z,32.25
2022-12-02T01:26:43.723Z,37.00
2022-12-02T01:29:10.132Z,33.15
2022-12-02T01:31:36.573Z,37.67
2022-12-02T01:34:02.955Z,36.58
2022-12-02T01:36:29.346Z,36.28
2022-12-02T01:38:55.700Z,33.20
2022-12-02T01:41:22.359Z,34.42
2022-12-02T01:43:49.036Z,33.65
2022-12-02T01:46:15.598Z,34.92
2022-12-02T01:48:42.062Z,34.47
2022-12-02T01:51:08.563Z,36.40
2022-12-02T01:53:35.513Z,38.35
2022-12-02T01:56:02.021Z,34.90
2022-12-02T01:58:30.144Z,36.03
2022-12-02T02:00:57.018Z,35.88
2022-12-02T02:03:23.749Z,36.70
2022-12-02T02:05:50.756Z,33.70
2022-12-02T02:08:17.818Z,36.80
2022-12-02T02:10:45.170Z,35.70
2022-12-02T02:13:13.089Z,37.95
2022-12-02T02:15:41.139Z,36.55
2022-12-02T02:18:07.530Z,36.92
2022-12-02T02:20:38.164Z,35.10
2022-12-02T02:23:04.579Z,35.50
2022-12-02T02:25:37.817Z,33.92
2022-12-02T02:28:04.306Z,36.22
2022-12-02T02:30:34.399Z,35.40
2022-12-02T02:33:03.230Z,35.85
2022-12-02T02:35:29.646Z,36.50
2022-12-02T02:37:56.510Z,36.05
2022-12-02T02:40:24.565Z,34.63
2022-12-02T02:42:53.335Z,35.17
2022-12-02T02:45:21.947Z,34.88
2022-12-02T02:47:48.863Z,34.50
2022-12-02T02:50:15.827Z,34.80
2022-12-02T02:52:42.358Z,36.70
2022-12-02T02:55:11.005Z,36.70
2022-12-02T02:57:38.292Z,37.75
2022-12-02T03:00:05.139Z,37.83
2022-12-02T03:02:32.676Z,37.03
2022-12-02T03:04:59.246Z,38.90
2022-12-02T03:07:25.663Z,35.83
2022-12-02T03:09:52.132Z,35.83
2022-12-02T03:12:18.667Z,34.65
2022-12-02T03:14:45.174Z,38.08
2022-12-02T03:17:11.960Z,36.50
2022-12-02T03:19:38.907Z,35.13
2022-12-02T03:22:05.700Z,35.72
2022-12-02T03:24:32.336Z,37.10
2022-12-02T03:26:59.923Z,35.60
2022-12-02T03:29:26.801Z,36.30
2022-12-02T03:31:53.207Z,36.53
2022-12-02T03:34:19.886Z,37.22
2022-12-02T03:36:46.462Z,37.55
2022-12-02T04:02:20.646Z,38.28
2022-12-02T04:04:47.061Z,36.97
2022-12-02T04:07:13.428Z,36.80
2022-12-02T04:09:39.814Z,38.53
2022-12-02T04:12:06.232Z,38.70
2022-12-02T04:14:32.593Z,34.92
2022-12-02T04:17:00.623Z,39.10
2022-12-02T04:19:30.266Z,38.20
2022-12-02T04:21:56.623Z,39.13
2022-12-02T04:24:23.000Z,38.67
2022-12-02T04:26:49.358Z,41.72
2022-12-02T04:29:15.706Z,37.55
2022-12-02T04:31:42.154Z,42.17
2022-12-02T04:34:08.565Z,39.10
2022-12-02T04:36:34.932Z,40.88
2022-12-02T04:39:01.297Z,40.05
2022-12-02T04:41:29.214Z,40.35
2022-12-02T04:43:55.616Z,41.45
2022-12-02T04:46:22.239Z,35.08
2022-12-02T04:48:48.680Z,38.00
2022-12-02T04:51:15.051Z,39.03
2022-12-02T04:53:41.414Z,40.13
2022-12-02T04:56:07.987Z,40.78
2022-12-02T04:58:34.356Z,38.38
2022-12-02T05:01:00.734Z,36.47
2022-12-02T05:03:27.114Z,40.58
2022-12-02T05:05:53.474Z,35.97
2022-12-02T05:08:19.823Z,38.60
2022-12-02T05:10:46.200Z,38.25
2022-12-02T05:13:12.567Z,37.10
2022-12-02T05:15:39.211Z,37.75
2022-12-02T05:18:05.705Z,36.95
2022-12-02T05:20:32.160Z,39.53
2022-12-02T05:22:58.536Z,38.90
2022-12-02T05:25:24.988Z,37.30
2022-12-02T05:27:51.373Z,39.33
2022-12-02T05:30:17.774Z,33.42
2022-12-02T05:32:44.180Z,37.75
2022-12-02T05:35:10.595Z,39.03
2022-12-02T05:37:36.981Z,34.92
2022-12-02T05:40:04.158Z,38.40
2022-12-02T05:42:30.572Z,37.80
2022-12-02T05:45:00.576Z,38.05
2022-12-02T05:47:29.458Z,35.60
2022-12-02T05:49:55.828Z,33.97
2022-12-02T05:52:25.169Z,35.25
2022-12-02T05:54:53.044Z,34.65
2022-12-02T05:57:27.733Z,35.30
2022-12-02T06:00:06.271Z,32.80
2022-12-02T06:02:40.704Z,33.58
2022-12-02T06:05:36.403Z,31.52
2022-12-02T06:08:24.045Z,31.35
2022-12-02T06:11:03.735Z,33.45
2022-12-02T06:13:35.706Z,34.20
2022-12-02T06:16:07.763Z,31.65
2022-12-02T06:18:35.520Z,31.38
2022-12-02T06:21:04.999Z,33.53
2022-12-02T06:23:32.810Z,33.85
2022-12-02T06:26:00.078Z,32.47
2022-12-02T06:28:37.098Z,33.10
2022-12-02T06:31:14.008Z,33.88
2022-12-02T06:33:41.395Z,34.63
2022-12-02T06:36:14.259Z,33.25
2022-12-02T06:38:48.068Z,30.73
2022-12-02T06:41:32.167Z,28.88
2022-12-02T06:44:29.480Z,31.70
2022-12-02T06:46:56.082Z,32.13
2022-12-02T06:49:23.819Z,34.90
2022-12-02T06:51:56.319Z,31.60
2022-12-02T06:54:26.081Z,31.17
2022-12-02T06:56:52.585Z,29.63
2022-12-02T06:59:21.768Z,30.02
2022-12-02T07:01:48.344Z,30.38
2022-12-02T07:04:34.118Z,31.25
2022-12-02T07:07:16.200Z,24.60
2022-12-02T07:09:45.668Z,29.00
2022-12-02T07:12:18.773Z,29.23
2022-12-02T07:14:49.296Z,31.23
2022-12-02T07:17:30.106Z,26.73
2022-12-02T07:20:02.367Z,30.35
2022-12-02T07:25:35.342Z,22.65
2022-12-02T07:28:10.128Z,27.23
2022-12-02T07:30:40.564Z,27.45
2022-12-02T07:33:07.025Z,27.70
2022-12-02T07:35:33.402Z,28.60
2022-12-02T07:37:59.785Z,29.48
2022-12-02T07:40:26.209Z,28.45
2022-12-02T07:42:52.608Z,28.15
2022-12-02T07:45:19.845Z,30.60
2022-12-02T07:47:46.512Z,29.02
2022-12-02T07:50:14.763Z,28.10
2022-12-02T07:52:41.186Z,28.63
2022-12-02T07:55:08.082Z,25.50
2022-12-02T07:57:34.662Z,27.85
2022-12-02T08:00:03.670Z,26.63
2022-12-02T08:02:30.043Z,27.30
2022-12-02T08:04:56.484Z,30.08
2022-12-02T08:07:22.997Z,27.00
2022-12-02T08:09:49.448Z,27.95
2022-12-02T08:12:15.868Z,26.48
2022-12-02T08:14:42.233Z,23.23
2022-12-02T08:17:08.687Z,25.63
2022-12-02T08:19:35.086Z,25.27
2022-12-02T08:22:01.455Z,23.77
2022-12-02T08:24:27.816Z,24.90
2022-12-02T08:26:54.179Z,25.73
2022-12-02T08:29:20.645Z,24.33
2022-12-02T08:31:47.056Z,26.50
2022-12-02T08:34:13.415Z,24.45
2022-12-02T08:36:39.827Z,24.55
2022-12-02T08:39:06.369Z,22.42
2022-12-02T08:41:35.331Z,22.35
2022-12-02T08:44:02.051Z,23.10
2022-12-02T08:46:28.449Z,22.35
2022-12-02T08:48:54.917Z,23.27
2022-12-02T08:51:21.486Z,22.48
2022-12-02T08:53:47.947Z,23.23
2022-12-02T08:56:14.480Z,18.70
2022-12-02T08:58:40.857Z,23.85
2022-12-02T09:01:07.316Z,21.67
2022-12-02T09:03:33.823Z,25.38
2022-12-02T09:06:00.374Z,23.45
2022-12-02T09:08:26.947Z,26.90
2022-12-02T09:10:53.744Z,24.60
2022-12-02T09:13:20.206Z,25.48
2022-12-02T09:15:46.720Z,25.92
2022-12-02T09:18:14.710Z,23.77
2022-12-02T09:20:41.436Z,22.73
2022-12-02T09:23:07.961Z,24.98
2022-12-02T09:25:34.442Z,19.17
2022-12-02T09:28:00.825Z,19.58
2022-12-02T09:30:27.197Z,24.67
2022-12-02T09:32:53.584Z,22.10
2022-12-02T09:35:19.962Z,24.77
2022-12-02T09:37:46.575Z,24.88
2022-12-02T09:40:14.084Z,23.73
2022-12-02T09:42:40.614Z,23.92
2022-12-02T09:45:07.316Z,22.15
2022-12-02T09:47:34.240Z,24.77
2022-12-02T09:50:00.724Z,25.85
2022-12-02T09:52:27.389Z,22.73
2022-12-02T09:54:56.399Z,19.67
2022-12-02T09:57:26.958Z,22.13
2022-12-02T09:59:53.429Z,25.75
2022-12-02T10:02:33.219Z,27.98
2022-12-02T10:05:04.737Z,24.45
2022-12-02T10:07:31.162Z,26.45
2022-12-02T10:09:57.600Z,24.23
2022-12-02T10:12:23.956Z,23.80
2022-12-02T10:14:51.104Z,26.95
2022-12-02T10:17:19.558Z,26.77
2022-12-02T10:19:46.652Z,28.30
2022-12-02T10:22:19.065Z,25.98
2022-12-02T10:24:46.364Z,26.50
2022-12-02T10:27:31.881Z,24.77
2022-12-02T10:30:19.247Z,27.23
2022-12-02T10:33:01.127Z,24.38
2022-12-02T10:35:29.779Z,24.33
2022-12-02T10:37:56.143Z,25.25
2022-12-02T10:40:24.712Z,27.23
2022-12-02T10:43:09.926Z,26.65
2022-12-02T10:45:36.517Z,27.38
2022-12-02T10:48:18.321Z,23.45
2022-12-02T10:50:45.101Z,26.73
2022-12-02T10:53:16.379Z,28.85
2022-12-02T10:55:43.305Z,29.60
2022-12-02T10:58:17.289Z,24.80
2022-12-02T11:00:44.678Z,26.70
2022-12-02T11:03:11.335Z,26.88
2022-12-02T11:05:38.208Z,28.35
2022-12-02T11:08:19.419Z,33.78
2022-12-02T11:10:48.416Z,29.88
2022-12-02T11:13:17.893Z,29.08
2022-12-02T11:15:52.024Z,27.58
2022-12-02T11:18:30.573Z,28.88
2022-12-02T11:21:29.473Z,29.90
2022-12-02T11:24:23.549Z,28.85
2022-12-02T11:27:05.204Z,25.90
2022-12-02T11:29:39.265Z,29.40
2022-12-02T11:32:22.836Z,27.98
2022-12-02T11:37:47.824Z,30.17
2022-12-02T11:40:17.629Z,32.60
2022-12-02T11:42:44.821Z,31.30
2022-12-02T11:45:14.238Z,33.15
2022-12-02T11:47:42.142Z,30.17
2022-12-02T11:50:14.810Z,35.95
2022-12-02T11:52:50.122Z,31.52
2022-12-02T11:55:23.621Z,31.17
2022-12-02T11:57:59.412Z,32.00
2022-12-02T12:00:26.089Z,34.00
2022-12-02T12:03:15.310Z,29.30
2022-12-02T12:05:44.689Z,30.85
2022-12-02T12:08:24.955Z,31.45
2022-12-02T12:11:31.299Z,33.33
2022-12-02T12:14:07.408Z,28.23
2022-12-02T12:16:36.175Z,31.63
2022-12-02T12:19:22.867Z,27.58
2022-12-02T12:21:52.539Z,29.95
2022-12-02T12:24:19.931Z,30.83
2022-12-02T12:27:11.001Z,31.30
2022-12-02T12:29:39.636Z,32.45
2022-12-02T12:32:07.499Z,32.13
2022-12-02T12:34:33.947Z,31.58
2022-12-02T12:37:00.641Z,33.25
2022-12-02T12:39:27.018Z,26.35
2022-12-02T12:42:01.664Z,33.33
2022-12-02T12:44:31.475Z,32.75
2022-12-02T12:47:00.649Z,30.95
2022-12-02T12:49:27.418Z,31.77
2022-12-02T12:51:53.859Z,29.52
2022-12-02T12:54:20.216Z,32.13
2022-12-02T12:56:46.589Z,35.08
2022-12-02T12:59:13.002Z,35.85
2022-12-02T13:01:39.594Z,29.63
2022-12-02T13:04:06.001Z,26.45
2022-12-02T13:06:35.073Z,32.20
2022-12-02T13:09:03.873Z,30.50
2022-12-02T13:11:30.251Z,33.47
2022-12-02T13:13:56.643Z,28.95
2022-12-02T13:16:23.113Z,27.92
2022-12-02T13:18:49.528Z,31.35
2022-12-02T13:21:15.903Z,32.55
2022-12-02T13:23:42.268Z,28.65
2022-12-02T13:26:14.753Z,24.95
2022-12-02T13:28:41.576Z,31.58
2022-12-02T13:31:09.185Z,27.83
2022-12-02T13:33:35.658Z,33.95
2022-12-02T13:36:02.165Z,33.28
2022-12-02T13:38:28.576Z,34.95
2022-12-02T13:40:54.965Z,33.20
2022-12-02T13:43:21.409Z,30.10
2022-12-02T13:45:47.856Z,30.38
2022-12-02T13:48:14.456Z,32.45
2022-12-02T13:50:40.931Z,26.83
2022-12-02T13:53:07.427Z,29.70
2022-12-02T13:55:33.806Z,30.75
2022-12-02T13:58:00.171Z,28.98
2022-12-02T14:00:26.534Z,26.83
2022-12-02T14:02:52.951Z,26.83
2022-12-02T14:05:19.369Z,28.90
2022-12-02T14:07:45.799Z,26.00
2022-12-02T14:10:12.363Z,27.95
2022-12-02T14:12:38.778Z,24.33
2022-12-02T14:15:05.651Z,28.45
2022-12-02T14:17:32.186Z,24.95
2022-12-02T14:19:58.533Z,25.65
2022-12-02T14:22:24.905Z,26.52
2022-12-02T14:24:51.643Z,25.55
2022-12-02T14:27:18.351Z,24.42
2022-12-02T14:29:44.717Z,27.50
2022-12-02T14:32:11.178Z,24.38
2022-12-02T14:34:37.682Z,25.85
2022-12-02T14:37:04.070Z,23.02
2022-12-02T14:39:30.429Z,22.23
2022-12-02T14:41:56.804Z,22.90
2022-12-02T14:44:23.280Z,24.23
2022-12-02T14:46:49.677Z,24.98
2022-12-02T14:49:39.702Z,21.45
2022-12-02T14:52:03.896Z,22.58
2022-12-02T14:54:30.297Z,24.77
2022-12-02T14:56:56.660Z,23.75
2022-12-02T14:59:23.054Z,24.42
2022-12-02T15:01:49.484Z,24.60
2022-12-02T15:04:15.908Z,24.95
2022-12-02T15:06:43.774Z,23.55
2022-12-02T15:09:10.586Z,23.35
2022-12-02T15:11:36.948Z,26.83
2022-12-02T15:14:03.332Z,24.13
2022-12-02T15:16:29.750Z,21.67
2022-12-02T15:18:56.128Z,24.50
2022-12-02T15:21:22.493Z,29.25
2022-12-02T15:23:50.386Z,22.52
2022-12-02T15:26:16.751Z,24.20
2022-12-02T15:28:43.108Z,26.48
2022-12-02T15:31:09.506Z,29.02
2022-12-02T15:33:35.915Z,26.88
2022-12-02T15:36:02.344Z,26.10
2022-12-02T15:38:29.912Z,28.73
2022-12-02T15:40:56.734Z,23.27
2022-12-02T15:43:23.096Z,28.55
2022-12-02T15:45:49.479Z,27.90
2022-12-02T15:48:15.860Z,27.23
2022-12-02T15:50:42.224Z,27.73
2022-12-02T15:53:08.604Z,29.48
2022-12-02T15:55:34.991Z,27.88
2022-12-02T15:58:01.391Z,27.33
2022-12-02T16:00:27.774Z,25.35
2022-12-02T16:02:56.446Z,27.27
2022-12-02T16:05:23.652Z,25.45
2022-12-02T16:07:50.273Z,26.30
2022-12-02T16:10:16.700Z,25.73
2022-12-02T16:12:43.062Z,26.08
2022-12-02T16:15:10.112Z,26.85
2022-12-02T16:17:36.819Z,24.63
2022-12-02T16:20:04.695Z,25.27
2022-12-02T16:22:31.231Z,22.15
2022-12-02T16:24:57.652Z,25.65
2022-12-02T16:27:24.043Z,28.30
2022-12-02T16:29:50.478Z,27.48
2022-12-02T16:32:20.370Z,23.65
2022-12-02T16:34:47.452Z,23.50
2022-12-02T16:37:16.747Z,21.13
2022-12-02T16:39:43.538Z,24.73
2022-12-02T16:42:09.948Z,27.08
2022-12-02T16:44:36.330Z,28.55
2022-12-02T16:47:03.134Z,28.80
2022-12-02T16:49:29.565Z,28.27
2022-12-02T16:51:55.955Z,26.75
2022-12-02T16:54:22.364Z,27.77
2022-12-02T16:56:52.616Z,30.63
2022-12-02T16:59:22.917Z,28.75
2022-12-02T17:01:49.518Z,27.98
2022-12-02T17:04:16.010Z,27.08
2022-12-02T17:06:42.383Z,30.17
2022-12-02T17:09:08.749Z,24.55
2022-12-02T17:11:35.093Z,28.73
2022-12-02T17:14:01.453Z,27.98
2022-12-02T17:16:27.895Z,28.45
2022-12-02T17:18:54.365Z,26.08
2022-12-02T17:21:20.729Z,27.00
2022-12-02T17:23:47.079Z,28.75
2022-12-02T17:26:13.486Z,27.17
2022-12-02T17:28:39.826Z,25.42
2022-12-02T17:31:06.217Z,26.05
2022-12-02T17:33:32.757Z,21.30
2022-12-02T17:35:59.119Z,25.48
2022-12-02T17:38:25.474Z,26.75
2022-12-02T17:41:09.926Z,23.33
2022-12-02T17:43:39.611Z,27.08
2022-12-02T17:46:06.227Z,24.65
2022-12-02T17:48:32.746Z,28.10
2022-12-02T17:50:59.169Z,25.45
2022-12-02T17:53:25.587Z,25.15
2022-12-02T17:55:52.004Z,25.42
2022-12-02T17:58:18.504Z,25.27
2022-12-02T18:00:44.887Z,24.00
2022-12-02T18:03:11.348Z,24.55
2022-12-02T18:05:37.960Z,23.52
2022-12-02T18:08:04.603Z,21.30
2022-12-02T18:10:30.999Z,22.02
2022-12-02T18:12:57.368Z,22.48
2022-12-02T18:15:23.732Z,22.02
2022-12-02T18:17:50.076Z,22.30
2022-12-02T18:20:16.473Z,22.67
2022-12-02T18:22:42.831Z,25.05
2022-12-02T18:25:09.365Z,25.63
2022-12-02T18:27:35.708Z,21.45
2022-12-02T18:30:02.115Z,24.20
2022-12-02T18:32:28.469Z,24.42
2022-12-02T18:34:55.116Z,24.05
2022-12-02T18:37:21.840Z,21.17
2022-12-02T18:39:48.240Z,21.73
2022-12-02T18:42:15.280Z,21.45
2022-12-02T18:44:41.655Z,23.52
2022-12-02T18:47:08.011Z,20.30
2022-12-02T18:49:37.999Z,21.30
2022-12-02T18:52:09.379Z,24.27
2022-12-02T18:54:35.807Z,21.40
2022-12-02T18:57:02.195Z,23.33
2022-12-02T18:59:28.564Z,22.73
2022-12-02T19:01:54.994Z,24.73
2022-12-02T19:04:21.590Z,24.13
2022-12-02T19:06:48.069Z,25.05
2022-12-02T19:09:14.515Z,23.27
2022-12-02T19:11:40.965Z,24.95
2022-12-02T19:14:07.318Z,25.42
2022-12-02T19:16:33.767Z,25.83
2022-12-02T19:19:00.219Z,23.50
2022-12-02T19:21:26.620Z,26.58
2022-12-02T19:23:53.038Z,23.38
2022-12-02T19:26:19.856Z,23.77
2022-12-02T19:28:46.218Z,24.48
2022-12-02T19:31:12.692Z,28.10
2022-12-02T19:33:39.136Z,27.58
2022-12-02T19:36:05.785Z,25.67
2022-12-02T19:38:32.214Z,25.67
2022-12-02T19:40:58.589Z,25.25
2022-12-02T19:43:25.896Z,23.60
2022-12-02T19:45:52.769Z,22.20
2022-12-02T19:48:20.836Z,22.13
2022-12-02T19:50:47.215Z,27.98
2022-12-02T19:53:13.584Z,25.08
2022-12-02T19:55:40.010Z,25.85
2022-12-02T19:58:06.733Z,27.25
2022-12-02T20:00:35.170Z,24.63
2022-12-02T20:03:02.470Z,24.02
2022-12-02T20:05:28.880Z,24.02
2022-12-02T20:07:55.350Z,26.65
2022-12-02T20:10:21.876Z,19.98
2022-12-02T20:12:48.362Z,24.35
2022-12-02T20:15:15.842Z,25.73
2022-12-02T20:17:42.312Z,22.95
2022-12-02T20:20:12.861Z,23.95
2022-12-02T20:22:39.580Z,23.88
2022-12-02T20:25:06.519Z,26.23
2022-12-02T20:27:32.958Z,23.77
2022-12-02T20:29:59.359Z,22.48
2022-12-02T20:32:25.739Z,23.35
2022-12-02T20:34:52.441Z,24.90
2022-12-02T20:37:19.083Z,24.30
2022-12-02T20:39:45.443Z,23.65
2022-12-02T20:42:11.821Z,28.30
2022-12-02T20:44:38.180Z,23.02
2022-12-02T20:47:04.689Z,23.95
2022-12-02T20:49:31.153Z,22.98
2022-12-02T20:51:57.620Z,25.27
2022-12-02T20:54:24.048Z,24.90
2022-12-02T20:56:50.413Z,25.40
2022-12-02T20:59:16.773Z,23.90
2022-12-02T21:01:43.247Z,22.33
2022-12-02T21:04:09.729Z,25.58
2022-12-02T21:06:36.099Z,23.30
2022-12-02T21:09:02.454Z,22.20
2022-12-02T21:11:28.818Z,22.00
2022-12-02T21:13:55.236Z,21.92
2022-12-02T21:16:21.681Z,20.27
2022-12-02T21:18:48.374Z,20.92
2022-12-02T21:21:14.751Z,21.70
2022-12-02T21:23:41.113Z,23.40
2022-12-02T21:26:07.479Z,21.63
2022-12-02T21:28:33.854Z,23.05
2022-12-02T21:31:00.373Z,21.13
2022-12-02T21:33:26.805Z,22.50
2022-12-02T21:35:53.388Z,20.35
2022-12-02T21:38:19.751Z,21.42
2022-12-02T21:40:46.135Z,19.85
2022-12-02T21:43:16.089Z,21.40
2022-12-02T21:45:43.158Z,21.70
2022-12-02T21:48:09.611Z,19.73
2022-12-02T21:50:36.016Z,20.90
2022-12-02T21:53:02.476Z,22.70
2022-12-02T21:55:28.941Z,19.38
2022-12-02T21:57:55.313Z,20.90
2022-12-02T22:00:22.200Z,18.13
2022-12-02T22:02:48.701Z,19.75
2022-12-02T22:05:18.137Z,19.92
2022-12-02T22:07:45.824Z,20.38
2022-12-02T22:10:14.311Z,19.23
2022-12-02T22:12:40.733Z,15.57
2022-12-02T22:15:07.843Z,20.80
2022-12-02T22:17:34.371Z,19.45
2022-12-02T22:20:01.021Z,17.75
2022-12-02T22:22:27.395Z,18.80
2022-12-02T22:24:54.094Z,18.75
2022-12-02T22:27:20.722Z,16.67
2022-12-02T22:29:47.130Z,16.85
2022-12-02T22:32:13.528Z,17.67
2022-12-02T22:34:39.939Z,18.33
2022-12-02T22:37:06.420Z,19.48
2022-12-02T22:39:32.786Z,17.23
2022-12-02T22:41:59.186Z,19.95
2022-12-02T22:44:25.550Z,18.77
2022-12-02T22:46:52.017Z,18.58
2022-12-02T22:49:18.583Z,18.70
2022-12-02T22:51:45.273Z,18.08
2022-12-02T22:54:11.764Z,18.48
2022-12-02T22:56:38.249Z,18.08
2022-12-02T22:59:04.773Z,19.70
2022-12-02T23:01:32.016Z,18.60
2022-12-02T23:03:58.498Z,17.92
2022-12-02T23:06:24.876Z,17.67
2022-12-02T23:08:51.237Z,18.80
2022-12-02T23:11:17.695Z,18.10
2022-12-02T23:13:44.059Z,18.42
2022-12-02T23:16:10.497Z,18.40
2022-12-02T23:18:37.074Z,17.95
2022-12-02T23:21:04.456Z,17.52
2022-12-02T23:23:30.818Z,16.92
2022-12-02T23:25:57.165Z,17.25
2022-12-02T23:28:23.532Z,19.10
2022-12-02T23:30:49.996Z,18.75
2022-12-02T23:33:16.418Z,18.60
2022-12-02T23:35:42.805Z,20.17
2022-12-02T23:38:09.164Z,17.33
2022-12-02T23:40:35.560Z,20.33
2022-12-02T23:43:01.913Z,18.02
2022-12-02T23:45:28.328Z,19.92
2022-12-02T23:47:54.684Z,18.27
2022-12-02T23:50:21.072Z,18.63
2022-12-02T23:52:47.417Z,17.52
2022-12-02T23:55:14.009Z,17.90
2022-12-02T23:57:40.403Z,19.00
